createdAt,value
2019-03-09T00:01:15.500Z,6.89
2019-03-09T00:03:44.723Z,6.89
2019-03-09T00:06:18.673Z,6.94
2019-03-09T00:08:47.986Z,6.96
2019-03-09T00:11:17.173Z,6.93
2019-03-09T00:13:46.458Z,6.92
2019-03-09T00:16:15.680Z,6.93
2019-03-09T00:18:44.877Z,7.00
2019-03-09T00:21:14.005Z,6.99
2019-03-09T00:24:11.228Z,6.96
2019-03-09T00:26:58.046Z,6.93
2019-03-09T00:29:44.803Z,6.95
2019-03-09T00:32:16.647Z,6.96
2019-03-09T00:34:45.848Z,7.02
2019-03-09T00:37:14.972Z,7.08
2019-03-09T00:39:44.427Z,7.15
2019-03-09T00:42:13.750Z,7.10
2019-03-09T00:44:42.933Z,7.15
2019-03-09T00:47:12.253Z,7.11
2019-03-09T00:49:41.447Z,7.22
2019-03-09T00:52:10.663Z,7.27
2019-03-09T00:54:39.871Z,7.37
2019-03-09T00:57:09.260Z,7.38
2019-03-09T00:59:38.418Z,7.39
2019-03-09T01:02:07.710Z,7.47
2019-03-09T01:04:36.919Z,7.46
2019-03-09T01:07:06.266Z,7.50
2019-03-09T01:09:35.414Z,7.61
2019-03-09T01:12:04.737Z,7.62
2019-03-09T01:14:33.958Z,7.63
2019-03-09T01:17:03.158Z,7.73
2019-03-09T01:19:32.333Z,7.77
2019-03-09T01:22:01.691Z,7.87
2019-03-09T01:24:31.004Z,7.95
2019-03-09T01:27:00.150Z,7.99
2019-03-09T01:29:29.451Z,8.08
2019-03-09T01:31:58.658Z,8.14
2019-03-09T01:34:27.825Z,8.13
2019-03-09T01:36:57.025Z,8.25
2019-03-09T01:39:26.328Z,8.35
2019-03-09T01:41:55.437Z,8.30
2019-03-09T01:44:24.589Z,8.31
2019-03-09T01:46:53.774Z,8.36
2019-03-09T01:49:22.948Z,8.38
2019-03-09T01:51:52.264Z,8.46
2019-03-09T01:54:21.526Z,8.45
2019-03-09T01:56:50.683Z,8.45
2019-03-09T01:59:20.245Z,8.42
2019-03-09T02:01:49.412Z,8.36
2019-03-09T02:04:18.615Z,8.42
2019-03-09T02:06:47.937Z,8.46
2019-03-09T02:09:17.096Z,8.52
2019-03-09T02:11:46.244Z,8.57
2019-03-09T02:14:15.460Z,8.56
2019-03-09T02:16:44.607Z,8.57
2019-03-09T02:19:13.871Z,8.52
2019-03-09T02:21:43.118Z,8.60
2019-03-09T02:24:12.349Z,8.62
2019-03-09T02:26:41.500Z,8.65
2019-03-09T02:29:10.680Z,8.56
2019-03-09T02:31:39.813Z,8.62
2019-03-09T02:34:09.016Z,8.61
2019-03-09T02:36:38.283Z,8.65
2019-03-09T02:39:21.975Z,8.65
2019-03-09T02:41:51.119Z,8.73
2019-03-09T02:44:20.297Z,8.74
2019-03-09T02:46:49.525Z,8.81
2019-03-09T02:49:18.840Z,8.87
2019-03-09T02:51:48.045Z,8.85
2019-03-09T02:54:17.477Z,8.87
2019-03-09T02:56:46.623Z,8.81
2019-03-09T02:59:16.046Z,8.77
2019-03-09T03:01:50.975Z,8.82
2019-03-09T03:04:20.135Z,8.84
2019-03-09T03:06:49.255Z,8.81
2019-03-09T03:09:18.411Z,8.77
2019-03-09T03:11:47.618Z,8.84
2019-03-09T03:14:16.825Z,8.87
2019-03-09T03:16:46.006Z,8.92
2019-03-09T03:19:15.212Z,8.85
2019-03-09T03:21:45.493Z,8.83
2019-03-09T03:24:14.709Z,8.89
2019-03-09T03:26:44.019Z,8.88
2019-03-09T03:29:13.148Z,8.80
2019-03-09T03:31:42.311Z,8.77
2019-03-09T03:34:11.613Z,8.78
2019-03-09T03:36:40.822Z,8.87
2019-03-09T03:39:10.042Z,8.84
2019-03-09T03:41:39.241Z,8.75
2019-03-09T03:44:08.414Z,8.76
2019-03-09T03:46:37.565Z,8.82
2019-03-09T03:49:06.708Z,8.89
2019-03-09T03:51:35.886Z,8.94
2019-03-09T03:54:05.050Z,9.01
2019-03-09T03:56:34.476Z,8.97
2019-03-09T03:59:03.745Z,9.01
2019-03-09T04:01:33.050Z,8.98
2019-03-09T04:04:02.211Z,8.97
2019-03-09T04:06:31.556Z,8.92
2019-03-09T04:09:00.869Z,8.93
2019-03-09T04:11:30.606Z,8.90
2019-03-09T04:13:59.800Z,8.92
2019-03-09T04:16:28.999Z,8.86
2019-03-09T04:18:58.460Z,8.81
2019-03-09T04:21:27.674Z,8.81
2019-03-09T04:23:56.831Z,8.77
2019-03-09T04:26:26.248Z,8.66
2019-03-09T04:28:55.411Z,8.51
2019-03-09T04:31:24.623Z,8.47
2019-03-09T04:33:53.832Z,8.45
2019-03-09T04:36:23.028Z,8.39
2019-03-09T04:38:52.241Z,8.32
2019-03-09T04:41:21.369Z,8.32
2019-03-09T04:43:50.518Z,8.27
2019-03-09T04:46:19.627Z,8.27
2019-03-09T04:48:48.814Z,8.22
2019-03-09T04:51:17.982Z,8.22
2019-03-09T04:53:47.167Z,8.17
2019-03-09T04:56:16.304Z,8.04
2019-03-09T04:58:45.489Z,7.94
2019-03-09T05:01:14.657Z,7.85
2019-03-09T05:03:43.827Z,7.89
2019-03-09T05:06:15.763Z,7.79
2019-03-09T05:09:15.359Z,7.76
2019-03-09T05:11:44.636Z,7.71
2019-03-09T05:14:25.260Z,7.68
2019-03-09T05:16:54.420Z,7.64
2019-03-09T05:19:23.603Z,7.60
2019-03-09T05:21:52.813Z,7.57
2019-03-09T05:24:22.085Z,7.59
2019-03-09T05:26:51.486Z,7.55
2019-03-09T05:29:20.790Z,7.56
2019-03-09T05:31:49.964Z,7.49
2019-03-09T05:34:19.293Z,7.46
2019-03-09T05:36:48.487Z,7.44
2019-03-09T05:39:17.665Z,7.46
2019-03-09T05:41:46.861Z,7.49
2019-03-09T05:44:16.032Z,7.41
2019-03-09T05:46:45.212Z,7.39
2019-03-09T05:49:14.354Z,7.37
2019-03-09T05:51:43.524Z,7.40
2019-03-09T05:54:12.701Z,7.43
2019-03-09T05:56:41.901Z,7.46
2019-03-09T05:59:11.074Z,7.43
2019-03-09T06:01:40.312Z,7.42
2019-03-09T06:04:09.454Z,7.43
2019-03-09T06:06:38.705Z,7.43
2019-03-09T06:09:07.956Z,7.47
2019-03-09T06:11:37.215Z,7.44
2019-03-09T06:14:06.397Z,7.50
2019-03-09T06:16:35.715Z,7.47
2019-03-09T06:19:04.992Z,7.49
2019-03-09T06:21:34.173Z,7.57
2019-03-09T06:24:03.386Z,7.63
2019-03-09T06:26:32.579Z,7.65
2019-03-09T06:29:01.782Z,7.69
2019-03-09T06:31:30.944Z,7.68
2019-03-09T06:34:00.168Z,7.73
2019-03-09T06:37:03.086Z,7.72
2019-03-09T06:39:38.674Z,7.73
2019-03-09T06:42:37.711Z,7.78
2019-03-09T06:45:17.872Z,7.79
2019-03-09T06:47:47.212Z,7.75
2019-03-09T06:50:18.089Z,7.71
2019-03-09T06:52:47.306Z,7.76
2019-03-09T06:55:16.723Z,7.71
2019-03-09T06:57:45.894Z,7.73
2019-03-09T07:00:32.086Z,7.70
2019-03-09T07:03:01.376Z,7.70
2019-03-09T07:05:30.576Z,7.70
2019-03-09T07:07:59.770Z,7.76
2019-03-09T07:10:28.931Z,7.78
2019-03-09T07:12:58.105Z,7.73
2019-03-09T07:15:29.619Z,7.75
2019-03-09T07:18:28.936Z,7.79
2019-03-09T07:20:58.126Z,7.85
2019-03-09T07:23:27.351Z,7.88
2019-03-09T07:25:59.625Z,7.88
2019-03-09T07:28:28.764Z,7.94
2019-03-09T07:30:58.030Z,7.92
2019-03-09T07:33:27.224Z,7.90
2019-03-09T07:35:56.463Z,7.96
2019-03-09T07:38:25.641Z,8.03
2019-03-09T07:40:54.908Z,8.03
2019-03-09T07:43:24.042Z,8.03
2019-03-09T07:45:53.269Z,8.08
2019-03-09T07:48:22.471Z,8.03
2019-03-09T07:50:51.697Z,8.04
2019-03-09T07:53:20.828Z,8.06
2019-03-09T07:55:50.021Z,8.13
2019-03-09T07:58:19.365Z,8.16
2019-03-09T08:00:48.967Z,8.14
2019-03-09T08:03:19.908Z,8.19
2019-03-09T08:05:49.086Z,8.19
2019-03-09T08:08:18.285Z,8.23
2019-03-09T08:10:47.555Z,8.31
2019-03-09T08:13:16.746Z,8.26
2019-03-09T08:15:46.031Z,8.39
2019-03-09T08:18:15.197Z,8.50
2019-03-09T08:20:44.383Z,8.48
2019-03-09T08:23:13.865Z,8.51
2019-03-09T08:25:43.038Z,8.56
2019-03-09T08:28:12.285Z,8.59
2019-03-09T08:30:41.651Z,8.63
2019-03-09T08:33:10.828Z,8.68
2019-03-09T08:35:40.063Z,8.63
2019-03-09T08:38:09.263Z,8.79
2019-03-09T08:40:38.416Z,8.90
2019-03-09T08:43:07.631Z,8.76
2019-03-09T08:45:36.844Z,8.75
2019-03-09T08:48:06.023Z,8.73
2019-03-09T08:50:35.328Z,8.80
2019-03-09T08:53:04.511Z,8.81
2019-03-09T08:55:33.729Z,8.82
2019-03-09T08:58:02.984Z,8.97
2019-03-09T09:00:33.000Z,9.08
2019-03-09T09:03:02.262Z,9.12
2019-03-09T09:05:31.464Z,9.11
2019-03-09T09:08:00.654Z,9.09
2019-03-09T09:10:29.821Z,9.09
2019-03-09T09:12:59.017Z,9.09
2019-03-09T09:15:28.273Z,9.17
2019-03-09T09:17:57.499Z,9.20
2019-03-09T09:20:26.759Z,9.21
2019-03-09T09:22:55.914Z,9.37
2019-03-09T09:25:25.180Z,9.45
2019-03-09T09:27:54.897Z,9.52
2019-03-09T09:30:25.774Z,9.56
2019-03-09T09:32:55.021Z,9.57
2019-03-09T09:35:24.296Z,9.54
2019-03-09T09:37:53.705Z,9.57
2019-03-09T09:40:23.869Z,9.55
2019-03-09T09:42:53.465Z,9.53
2019-03-09T09:45:23.333Z,9.50
2019-03-09T09:47:52.506Z,9.71
2019-03-09T09:50:21.747Z,9.66
2019-03-09T09:52:51.014Z,9.72
2019-03-09T09:55:20.211Z,9.73
2019-03-09T09:57:49.569Z,9.66
2019-03-09T10:00:20.713Z,9.59
2019-03-09T10:02:49.923Z,9.53
2019-03-09T10:05:19.255Z,9.64
2019-03-09T10:07:48.436Z,9.69
2019-03-09T10:10:18.537Z,9.76
2019-03-09T10:12:49.717Z,9.72
2019-03-09T10:15:21.021Z,9.68
2019-03-09T10:17:50.228Z,9.70
2019-03-09T10:20:19.459Z,9.85
2019-03-09T10:22:48.896Z,9.92
2019-03-09T10:25:18.084Z,9.84
2019-03-09T10:27:47.432Z,9.70
2019-03-09T10:30:18.458Z,9.56
2019-03-09T10:32:47.730Z,9.61
2019-03-09T10:35:16.913Z,9.74
2019-03-09T10:37:46.076Z,9.86
2019-03-09T10:40:15.490Z,9.83
2019-03-09T10:42:44.701Z,9.82
2019-03-09T10:45:14.052Z,9.79
2019-03-09T10:47:44.189Z,9.91
2019-03-09T10:50:13.827Z,9.83
2019-03-09T10:52:43.061Z,9.83
2019-03-09T10:55:14.655Z,9.75
2019-03-09T10:57:44.455Z,9.86
2019-03-09T11:00:27.676Z,9.90
2019-03-09T11:02:56.944Z,9.75
2019-03-09T11:05:26.124Z,10.02
2019-03-09T11:07:55.525Z,9.99
2019-03-09T11:10:24.804Z,10.08
2019-03-09T11:12:54.038Z,10.33
2019-03-09T11:15:23.372Z,10.19
2019-03-09T11:17:52.605Z,10.06
2019-03-09T11:20:21.822Z,9.95
2019-03-09T11:22:51.022Z,10.12
2019-03-09T11:25:20.197Z,10.09
2019-03-09T11:27:49.468Z,10.07
2019-03-09T11:30:20.690Z,10.25
2019-03-09T11:32:49.864Z,10.10
2019-03-09T11:35:19.255Z,10.43
2019-03-09T11:37:48.446Z,10.29
2019-03-09T11:40:17.672Z,10.38
2019-03-09T11:42:46.865Z,10.27
2019-03-09T11:45:16.546Z,10.06
2019-03-09T11:47:45.751Z,10.19
2019-03-09T11:50:15.935Z,10.05
2019-03-09T11:52:45.464Z,10.01
2019-03-09T11:55:15.122Z,10.16
2019-03-09T11:57:44.264Z,10.17
2019-03-09T12:00:17.746Z,10.38
2019-03-09T12:02:46.990Z,10.39
2019-03-09T12:05:16.242Z,10.32
2019-03-09T12:07:45.486Z,10.55
2019-03-09T12:10:14.897Z,10.45
2019-03-09T12:12:44.069Z,10.27
2019-03-09T12:15:13.605Z,10.33
2019-03-09T12:17:42.779Z,10.65
2019-03-09T12:20:12.694Z,10.84
2019-03-09T12:22:41.912Z,11.06
2019-03-09T12:25:11.157Z,11.05
2019-03-09T12:27:40.399Z,10.85
2019-03-09T12:30:11.552Z,11.02
2019-03-09T12:32:45.709Z,11.05
2019-03-09T12:35:15.203Z,10.67
2019-03-09T12:37:44.405Z,10.61
2019-03-09T12:40:15.613Z,10.72
2019-03-09T12:42:44.933Z,10.66
2019-03-09T12:45:14.416Z,10.73
2019-03-09T12:47:43.796Z,10.52
2019-03-09T12:50:15.661Z,10.38
2019-03-09T12:52:44.884Z,10.33
2019-03-09T12:55:14.414Z,10.34
2019-03-09T12:57:43.569Z,10.25
2019-03-09T13:00:14.854Z,10.05
2019-03-09T13:02:44.034Z,10.16
2019-03-09T13:05:13.747Z,10.15
2019-03-09T13:07:42.953Z,10.13
2019-03-09T13:10:12.334Z,10.13
2019-03-09T13:12:41.579Z,10.18
2019-03-09T13:15:11.122Z,10.17
2019-03-09T13:17:40.424Z,10.24
2019-03-09T13:20:10.231Z,10.13
2019-03-09T13:22:39.414Z,10.01
2019-03-09T13:25:08.819Z,10.09
2019-03-09T13:27:38.061Z,10.08
2019-03-09T13:30:08.436Z,10.07
2019-03-09T13:32:37.625Z,10.07
2019-03-09T13:35:07.074Z,10.03
2019-03-09T13:37:36.289Z,10.06
2019-03-09T13:40:05.498Z,10.05
2019-03-09T13:42:34.703Z,9.95
2019-03-09T13:45:04.024Z,10.00
2019-03-09T13:47:33.242Z,10.03
2019-03-09T13:50:02.397Z,9.99
2019-03-09T13:52:31.557Z,9.96
2019-03-09T13:55:00.724Z,9.99
2019-03-09T13:57:30.018Z,9.90
2019-03-09T13:59:59.203Z,9.91
2019-03-09T14:02:28.446Z,9.90
2019-03-09T14:04:57.701Z,9.78
2019-03-09T14:07:26.954Z,9.77
2019-03-09T14:09:56.225Z,9.74
2019-03-09T14:12:25.444Z,9.62
2019-03-09T14:14:54.677Z,9.59
2019-03-09T14:17:23.883Z,9.58
2019-03-09T14:19:53.119Z,9.58
2019-03-09T14:22:22.276Z,9.74
2019-03-09T14:24:51.575Z,9.79
2019-03-09T14:27:20.743Z,9.92
2019-03-09T14:29:49.991Z,9.99
2019-03-09T14:32:19.188Z,9.99
2019-03-09T14:34:48.428Z,10.07
2019-03-09T14:37:17.643Z,10.00
2019-03-09T14:39:46.837Z,10.01
2019-03-09T14:42:15.998Z,9.90
2019-03-09T14:44:45.191Z,9.99
2019-03-09T14:47:14.392Z,9.98
2019-03-09T14:49:46.814Z,9.88
2019-03-09T14:52:16.262Z,9.94
2019-03-09T14:54:45.436Z,10.04
2019-03-09T14:57:14.683Z,10.16
2019-03-09T14:59:43.964Z,10.30
2019-03-09T15:02:13.323Z,10.37
2019-03-09T15:04:42.505Z,10.31
2019-03-09T15:07:11.765Z,10.71
2019-03-09T15:09:40.974Z,11.03
2019-03-09T15:12:10.270Z,10.98
2019-03-09T15:14:39.466Z,10.84
2019-03-09T15:17:08.682Z,10.74
2019-03-09T15:19:38.022Z,10.75
2019-03-09T15:22:07.277Z,10.71
2019-03-09T15:24:36.573Z,10.67
2019-03-09T15:27:06.486Z,10.55
2019-03-09T15:29:35.708Z,10.53
2019-03-09T15:32:04.957Z,10.51
2019-03-09T15:34:34.168Z,10.54
2019-03-09T15:37:03.337Z,10.61
2019-03-09T15:39:32.579Z,10.62
2019-03-09T15:42:02.000Z,10.62
2019-03-09T15:44:31.213Z,10.68
2019-03-09T15:47:00.425Z,10.61
2019-03-09T15:49:29.615Z,10.64
2019-03-09T15:52:00.939Z,10.65
2019-03-09T15:54:30.118Z,10.66
2019-03-09T15:56:59.394Z,10.71
2019-03-09T15:59:28.611Z,10.70
2019-03-09T16:01:57.800Z,10.73
2019-03-09T16:04:27.019Z,10.75
2019-03-09T16:06:56.255Z,10.84
2019-03-09T16:09:25.940Z,10.86
2019-03-09T16:11:55.328Z,10.82
2019-03-09T16:14:24.628Z,10.82
2019-03-09T16:16:53.838Z,10.87
2019-03-09T16:19:23.143Z,10.89
2019-03-09T16:21:52.478Z,10.88
2019-03-09T16:24:21.778Z,10.90
2019-03-09T16:26:51.048Z,10.98
2019-03-09T16:29:20.264Z,10.93
2019-03-09T16:31:49.453Z,10.95
2019-03-09T16:34:18.836Z,10.94
2019-03-09T16:36:48.045Z,10.92
2019-03-09T16:39:17.267Z,10.86
2019-03-09T16:41:46.550Z,10.93
2019-03-09T16:44:15.916Z,10.95
2019-03-09T16:46:45.105Z,10.91
2019-03-09T16:49:14.354Z,10.95
2019-03-09T16:51:43.561Z,10.81
2019-03-09T16:54:12.791Z,10.95
2019-03-09T16:56:42.266Z,10.98
2019-03-09T16:59:11.610Z,10.99
2019-03-09T17:01:40.931Z,11.10
2019-03-09T17:04:10.276Z,11.10
2019-03-09T17:06:39.631Z,11.16
2019-03-09T17:09:08.979Z,11.17
2019-03-09T17:11:38.384Z,11.55
2019-03-09T17:14:07.670Z,11.39
2019-03-09T17:16:36.909Z,11.54
2019-03-09T17:19:07.268Z,11.33
2019-03-09T17:21:36.443Z,11.26
2019-03-09T17:24:05.646Z,11.28
2019-03-09T17:26:34.882Z,11.33
2019-03-09T17:29:04.145Z,11.32
2019-03-09T17:31:33.570Z,11.29
2019-03-09T17:34:02.783Z,11.26
2019-03-09T17:36:32.213Z,11.30
2019-03-09T17:39:01.439Z,11.26
2019-03-09T17:41:30.711Z,11.27
2019-03-09T17:44:00.020Z,11.27
2019-03-09T17:46:29.310Z,11.21
2019-03-09T17:48:58.521Z,11.21
2019-03-09T17:51:27.755Z,11.19
2019-03-09T17:53:57.184Z,11.13
2019-03-09T17:56:26.395Z,11.13
2019-03-09T17:58:55.578Z,11.11
2019-03-09T18:01:24.852Z,11.08
2019-03-09T18:03:54.091Z,11.09
2019-03-09T18:06:23.418Z,11.15
2019-03-09T18:08:52.670Z,11.15
2019-03-09T18:11:21.890Z,11.20
2019-03-09T18:13:51.122Z,11.17
2019-03-09T18:16:20.381Z,11.21
2019-03-09T18:18:49.778Z,11.29
2019-03-09T18:21:19.121Z,11.22
2019-03-09T18:23:48.323Z,11.18
2019-03-09T18:26:17.630Z,11.23
2019-03-09T18:28:46.948Z,11.21
2019-03-09T18:31:16.304Z,11.20
2019-03-09T18:33:45.459Z,11.07
2019-03-09T18:36:14.666Z,11.08
2019-03-09T18:38:44.391Z,11.07
2019-03-09T18:41:13.633Z,11.03
2019-03-09T18:43:42.838Z,11.08
2019-03-09T18:46:13.819Z,11.08
2019-03-09T18:48:43.352Z,11.10
2019-03-09T18:51:12.552Z,11.13
2019-03-09T18:53:41.878Z,11.11
2019-03-09T18:56:11.089Z,11.08
2019-03-09T18:58:40.416Z,11.18
2019-03-09T19:01:09.603Z,11.16
2019-03-09T19:03:38.948Z,11.19
2019-03-09T19:06:08.165Z,11.20
2019-03-09T19:08:37.874Z,11.16
2019-03-09T19:11:07.099Z,11.12
2019-03-09T19:13:36.428Z,11.16
2019-03-09T19:16:05.711Z,11.13
2019-03-09T19:18:35.016Z,11.14
2019-03-09T19:21:04.244Z,11.09
2019-03-09T19:23:33.598Z,11.12
2019-03-09T19:26:02.826Z,11.14
2019-03-09T19:28:32.027Z,11.17
2019-03-09T19:31:01.483Z,11.19
2019-03-09T19:33:30.768Z,11.20
2019-03-09T19:36:00.012Z,11.18
2019-03-09T19:38:29.238Z,11.23
2019-03-09T19:40:58.579Z,11.20
2019-03-09T19:43:27.773Z,11.14
2019-03-09T19:45:57.063Z,11.11
2019-03-09T19:48:26.325Z,11.08
2019-03-09T19:50:55.574Z,11.06
2019-03-09T19:53:24.784Z,11.05
2019-03-09T19:55:54.058Z,11.05
2019-03-09T19:58:23.212Z,11.07
2019-03-09T20:00:52.554Z,11.14
2019-03-09T20:03:21.757Z,11.14
2019-03-09T20:05:50.958Z,11.14
2019-03-09T20:08:20.326Z,11.11
2019-03-09T20:10:49.780Z,11.10
2019-03-09T20:13:18.970Z,11.07
2019-03-09T20:15:48.244Z,11.01
2019-03-09T20:18:17.483Z,11.08
2019-03-09T20:20:46.959Z,11.08
2019-03-09T20:23:16.230Z,11.08
2019-03-09T20:25:45.528Z,11.01
2019-03-09T20:28:14.813Z,11.00
2019-03-09T20:30:44.079Z,10.98
2019-03-09T20:33:13.253Z,10.93
2019-03-09T20:35:42.685Z,11.01
2019-03-09T20:38:11.959Z,10.99
2019-03-09T20:40:41.384Z,11.00
2019-03-09T20:43:10.647Z,10.98
2019-03-09T20:45:39.990Z,10.95
2019-03-09T20:48:09.343Z,10.94
2019-03-09T20:50:38.906Z,11.12
2019-03-09T20:53:08.140Z,11.05
2019-03-09T20:55:38.331Z,11.03
2019-03-09T20:58:07.634Z,11.02
2019-03-09T21:00:36.847Z,11.06
2019-03-09T21:03:06.187Z,11.00
2019-03-09T21:05:36.881Z,11.02
2019-03-09T21:08:06.574Z,11.02
2019-03-09T21:10:35.821Z,10.96
2019-03-09T21:13:06.707Z,10.95
2019-03-09T21:15:35.898Z,10.94
2019-03-09T21:18:05.333Z,10.95
2019-03-09T21:20:34.603Z,10.90
2019-03-09T21:23:03.941Z,10.88
2019-03-09T21:25:33.117Z,10.87
2019-03-09T21:28:02.509Z,10.93
2019-03-09T21:30:31.728Z,10.93
2019-03-09T21:33:00.966Z,11.02
2019-03-09T21:35:30.242Z,11.07
2019-03-09T21:37:59.451Z,11.05
2019-03-09T21:40:28.706Z,11.11
2019-03-09T21:42:57.935Z,11.16
2019-03-09T21:45:27.162Z,11.14
2019-03-09T21:47:56.696Z,11.14
2019-03-09T21:50:25.939Z,11.19
2019-03-09T21:52:55.266Z,11.24
2019-03-09T21:55:24.524Z,11.25
2019-03-09T21:57:53.733Z,11.27
2019-03-09T22:00:22.982Z,11.15
2019-03-09T22:02:52.297Z,11.35
2019-03-09T22:05:21.476Z,11.33
2019-03-09T22:07:50.737Z,11.37
2019-03-09T22:10:19.980Z,11.32
2019-03-09T22:12:49.482Z,11.35
2019-03-09T22:15:18.893Z,11.40
2019-03-09T22:17:48.125Z,11.47
2019-03-09T22:20:17.483Z,11.49
2019-03-09T22:22:46.665Z,11.47
2019-03-09T22:25:15.944Z,11.45
2019-03-09T22:27:45.229Z,11.49
2019-03-09T22:30:14.755Z,11.48
2019-03-09T22:32:43.989Z,11.57
2019-03-09T22:35:13.455Z,11.53
2019-03-09T22:37:42.862Z,11.56
2019-03-09T22:40:12.524Z,11.64
2019-03-09T22:42:41.885Z,11.62
2019-03-09T22:45:11.478Z,11.62
2019-03-09T22:47:40.722Z,11.56
2019-03-09T22:50:11.583Z,11.61
2019-03-09T22:52:42.112Z,11.64
2019-03-09T22:55:11.695Z,11.64
2019-03-09T22:57:41.038Z,11.56
2019-03-09T23:00:12.912Z,11.61
2019-03-09T23:02:44.596Z,11.59
2019-03-09T23:05:13.722Z,11.49
2019-03-09T23:07:43.030Z,11.48
2019-03-09T23:10:14.103Z,11.44
2019-03-09T23:12:43.451Z,11.46
2019-03-09T23:15:13.705Z,11.48
2019-03-09T23:17:43.051Z,11.45
2019-03-09T23:20:13.009Z,11.42
2019-03-09T23:22:42.235Z,11.45
2019-03-09T23:25:11.891Z,11.48
2019-03-09T23:27:41.183Z,11.48
2019-03-09T23:30:13.977Z,11.46
2019-03-09T23:32:43.150Z,11.44
2019-03-09T23:35:12.434Z,11.48
2019-03-09T23:37:41.735Z,11.44
2019-03-09T23:40:11.035Z,11.45
2019-03-09T23:42:40.279Z,11.48
2019-03-09T23:45:10.858Z,11.50
2019-03-09T23:47:40.065Z,11.46
2019-03-09T23:50:10.530Z,11.46
2019-03-09T23:52:39.804Z,11.50
2019-03-09T23:55:09.302Z,11.44
2019-03-09T23:57:38.454Z,11.47
